Terminal Aerodrome Forecast
Issued by NWS Grand Forks, ND

Home | Current Version | Previous Version | Graphics & Text | Print | Product List | Glossary On
Versions: 1 2 3 4 5 6 7 8 9 10 11 12 13 14 15 16 17
000
FTUS43 KFGF 210520
TAFGFK
TAF
KGFK 210520Z 2106/2206 16005KT P6SM FEW150
     FM211200 16010KT P6SM VCSH OVC110
     FM211500 16013KT P6SM BKN100
     FM212000 19016KT P6SM BKN060
     FM212100 20014KT P6SM SCT050
     FM220500 28005KT P6SM FEW150=

USA.gov is the U.S. government's official web portal to all federal, state and local government web resources and services.